Latest Weather Observations for Sydney Airport

IDN60901

Issued at 6:01 pm EST Wednesday 26 June 2019 (issued every 10 minutes, with the page automatically refreshed every 10 minutes)

About weather observations | Map of Sydney area stations | Latest observations for Sydney area | Other Formats
Station Details ID: 066037 Name: SYDNEY AIRPORT AMO Lat: -33.95 Lon: 151.17 Height: 6.0 m
Data from the previous 72 hours. | See also: Recent months at Sydney Airport
Date/Time
EST
Temp
°C
App
Temp
°C
Dew
Point
°C
Rel
Hum
%
Delta-T
°C
Wind Press
QNH
hPa
Press
MSL
hPa
Rain since
9am
mm
Dir  Spd
km/h
Gust
km/h
Spd
kts
Gust
kts
26/05:30pm 15.0 12.6 12.5 85 1.4 SSE 17 24 9 13 1034.5 1034.5 0.0
26/05:00pm 14.5 12.3 12.0 85 1.3 SSW 15 30 8 16 1034.4 1034.4 0.0
26/04:30pm 14.5 12.1 11.3 81 1.7 SSW 15 28 8 15 1034.3 1034.3 0.0
26/04:00pm 14.9 11.8 11.5 80 1.8 S 19 24 10 13 1034.5 1034.5 0.0
26/03:30pm 15.3 11.1 11.1 76 2.2 S 24 30 13 16 1034.5 1034.5 0.0
26/03:00pm 15.5 10.8 10.5 72 2.6 SSE 26 33 14 18 1034.4 1034.4 0.0
26/02:30pm 15.4 10.8 11.0 75 2.3 SSE 26 33 14 18 1034.4 1034.4 0.0
26/02:00pm 16.7 11.8 12.5 76 2.3 SE 30 37 16 20 1034.2 1034.2 0.0
26/01:30pm 17.1 13.9 11.8 71 2.9 SSE 20 28 11 15 1034.4 1034.4 0.0
26/01:00pm 17.1 13.6 12.2 73 2.7 S 22 33 12 18 1034.6 1034.6 0.0
26/12:30pm 16.4 13.3 12.2 76 2.3 SSE 20 26 11 14 1034.9 1034.9 0.0
26/12:00pm 16.6 14.2 12.8 78 2.1 SW 17 24 9 13 1035.2 1035.2 0.0
26/11:30am 16.0 14.0 12.7 81 1.8 SSW 15 30 8 16 1035.6 1035.6 0.0
26/11:00am 15.0 11.4 13.0 88 1.1 SW 24 28 13 15 1036.0 1036.0 0.0
26/10:30am 15.1 12.7 12.8 86 1.3 SSW 17 32 9 17 1036.1 1036.1 0.0
26/10:00am 14.8 12.6 13.3 91 0.8 SW 17 26 9 14 1036.0 1036.0 0.0
26/09:30am 14.1 12.1 12.8 92 0.7 SSW 15 19 8 10 1036.1 1036.1 0.0
26/09:00am 14.3 11.9 12.7 90 0.9 SSW 17 20 9 11 1035.9 1035.9 4.4
26/08:30am 14.0 8.7 12.4 90 0.9 SSW 32 39 17 21 1035.3 1035.3 4.4
26/08:25am 13.9 9.2 11.9 88 1.1 SSW 28 39 15 21 1035.5 1035.5 4.4
26/08:00am 13.8 11.8 11.5 86 1.2 W 13 17 7 9 1035.3 1035.3 4.4
26/07:30am 14.2 13.0 11.7 85 1.3 WSW 9 11 5 6 1035.1 1035.1 4.4
26/07:00am 14.4 13.7 12.1 86 1.2 E 7 9 4 5 1034.9 1034.9 4.4
26/06:30am 14.0 9.5 11.3 84 1.4 SSE 26 33 14 18 1034.6 1034.6 4.2
26/06:00am 13.8 10.7 11.7 87 1.1 S 19 26 10 14 1034.4 1034.4 4.2
26/05:30am 13.6 13.1 12.5 93 0.6 NW 7 11 4 6 1034.2 1034.2 4.2
26/05:00am 13.5 12.1 12.1 91 0.7 WSW 11 17 6 9 1033.9 1033.9 4.2
26/04:30am 13.3 11.3 11.5 89 1.0 WSW 13 19 7 10 1033.8 1033.8 4.2
26/04:00am 14.0 12.2 12.0 88 1.1 WSW 13 17 7 9 1033.8 1033.8 4.2
26/03:30am 13.2 11.8 12.1 93 0.6 SSE 11 17 6 9 1034.0 1034.0 4.2
26/03:00am 13.0 11.4 11.7 92 0.7 SSE 11 20 6 11 1034.1 1034.1 4.2
26/02:30am 13.1 10.9 12.0 93 0.6 SSE 15 20 8 11 1033.9 1033.9 4.2
26/02:00am 13.4 10.3 12.3 93 0.6 S 20 26 11 14 1033.8 1033.8 4.2
26/01:30am 13.4 12.8 12.3 93 0.6 SSW 7 19 4 10 1033.9 1033.9 4.2
26/01:00am 13.5 12.9 12.2 92 0.7 SW 7 15 4 8 1033.8 1033.8 3.2
26/12:30am 13.7 11.4 11.9 89 1.0 ESE 15 20 8 11 1033.9 1033.9 3.0
26/12:15am 13.9 11.9 11.6 86 1.2 SE 13 22 7 12 1033.9 1033.9 2.2
26/12:00am 14.2 11.1 11.5 84 1.4 SSE 19 32 10 17 1033.9 1033.9 1.2
 
Date/Time
EST
Temp
°C
App
Temp
°C
Dew
Point
°C
Rel
Hum
%
Delta-T
°C
Wind Press
QNH
hPa
Press
MSL
hPa
Rain since
9am
mm
Dir  Spd
km/h
Gust
km/h
Spd
kts
Gust
kts
25/11:30pm 14.8 10.7 11.4 80 1.8 SSE 24 28 13 15 1033.7 1033.7 1.2
25/11:00pm 14.0 11.0 12.4 90 0.9 SE 20 28 11 15 1034.1 1034.1 1.2
25/10:46pm 14.3 12.7 12.7 90 0.9 E 13 19 7 10 1034.2 1034.2 1.0
25/10:30pm 14.0 10.9 12.2 89 1.0 ESE 20 32 11 17 1034.4 1034.4 1.0
25/10:29pm 14.0 10.8 12.0 88 1.1 ESE 20 32 11 17 1034.4 1034.4 1.0
25/10:00pm 15.8 11.9 10.8 72 2.6 SSE 22 28 12 15 1034.0 1034.0 0.8
25/09:30pm 15.8 11.2 11.0 73 2.6 SSE 26 33 14 18 1033.7 1033.7 0.8
25/09:00pm 15.4 12.0 11.4 77 2.1 SSE 20 30 11 16 1033.7 1033.7 0.8
25/08:30pm 15.7 11.2 11.5 76 2.3 SSE 26 33 14 18 1033.6 1033.6 0.8
25/08:00pm 15.8 11.9 10.8 72 2.6 SSE 22 28 12 15 1033.7 1033.7 0.8
25/07:30pm 15.6 11.3 10.6 72 2.6 SSE 24 30 13 16 1033.7 1033.7 0.8
25/07:00pm 16.0 11.3 10.7 71 2.8 SSE 26 33 14 18 1033.4 1033.4 0.8
25/06:30pm 15.7 11.9 11.1 74 2.5 SSE 22 28 12 15 1033.3 1033.3 0.8
25/06:00pm 16.1 12.0 11.3 73 2.6 SSE 24 30 13 16 1033.0 1033.0 0.8
25/05:30pm 15.3 12.2 12.2 82 1.7 SSE 20 26 11 14 1032.8 1032.8 0.8
25/05:00pm 14.4 12.4 12.6 89 1.0 SW 15 22 8 12 1032.8 1032.8 0.8
25/04:30pm 14.6 11.8 12.6 88 1.1 S 19 28 10 15 1032.9 1032.9 0.6
25/04:00pm 15.1 11.3 12.4 84 1.5 S 24 37 13 20 1032.7 1032.7 0.0
25/03:30pm 15.3 11.4 12.1 81 1.7 S 24 35 13 19 1032.5 1032.5 0.0
25/03:00pm 15.3 12.1 11.9 80 1.8 S 20 26 11 14 1032.4 1032.4 0.0
25/02:30pm 15.9 12.4 12.1 78 2.1 S 22 30 12 16 1032.3 1032.3 0.0
25/02:00pm 16.0 11.5 12.6 80 1.9 S 28 32 15 17 1032.4 1032.4 0.0
25/01:30pm 15.8 12.0 12.4 80 1.9 S 24 28 13 15 1032.5 1032.5 0.0
25/01:00pm 16.4 12.7 12.6 78 2.1 S 24 32 13 17 1032.6 1032.6 0.0
25/12:30pm 15.8 11.1 12.0 78 2.1 S 28 32 15 17 1032.7 1032.7 0.0
25/12:00pm 17.3 13.9 10.4 64 3.6 SSE 19 26 10 14 1033.0 1033.0 0.0
25/11:30am 16.9 13.4 11.0 68 3.2 SSE 20 24 11 13 1033.5 1033.5 0.0
25/11:00am 17.2 13.6 11.7 70 3.0 SSE 22 28 12 15 1033.7 1033.7 0.0
25/10:30am 17.0 13.9 11.5 70 3.0 SE 19 26 10 14 1033.9 1033.9 0.0
25/10:00am 14.7 12.7 12.6 87 1.1 SSW 15 20 8 11 1034.1 1034.1 0.0
25/09:30am 14.0 11.4 12.0 88 1.1 SW 17 22 9 12 1034.1 1034.1 0.0
25/09:00am 14.0 11.1 12.4 90 0.9 SSW 19 28 10 15 1033.8 1033.8 7.2
25/08:30am 13.8 10.4 12.4 91 0.8 SSW 22 26 12 14 1033.6 1033.6 7.2
25/08:00am 13.4 9.9 12.1 92 0.7 SSW 22 30 12 16 1033.4 1033.4 7.2
25/07:30am 13.4 10.9 12.3 93 0.6 SSW 17 20 9 11 1033.2 1033.2 7.2
25/07:00am 13.3 10.2 12.2 93 0.6 SSW 20 24 11 13 1033.0 1033.0 7.2
25/06:30am 13.1 9.5 12.0 93 0.6 SSW 22 28 12 15 1032.8 1032.8 7.2
25/06:00am 13.2 10.1 12.1 93 0.6 S 20 28 11 15 1032.5 1032.5 7.2
25/05:30am 13.2 10.6 11.9 92 0.7 SW 17 22 9 12 1032.4 1032.4 7.2
25/05:00am 13.0 10.7 11.7 92 0.7 SSW 15 20 8 11 1032.2 1032.2 7.2
25/04:30am 13.5 9.6 12.1 91 0.8 SE 24 30 13 16 1032.1 1032.1 7.2
25/04:00am 12.9 12.9 12.3 96 0.3 N 4 19 2 10 1032.1 1032.1 7.2
25/03:30am 12.6 10.0 12.0 96 0.3 NNW 17 20 9 11 1032.2 1032.2 7.2
25/03:00am 12.7 9.6 12.1 96 0.3 SSE 20 26 11 14 1032.2 1032.2 7.2
25/02:30am 12.9 9.9 12.1 95 0.4 SE 19 26 10 14 1032.2 1032.2 7.2
25/02:00am 13.4 11.7 12.6 95 0.4 E 13 19 7 10 1032.4 1032.4 7.2
25/01:30am 12.6 11.1 11.8 95 0.4 N 11 26 6 14 1032.4 1032.4 7.2
25/01:00am 13.6 12.0 12.8 95 0.4 ESE 13 19 7 10 1032.2 1032.2 7.2
25/12:30am 13.7 10.8 12.9 95 0.4 SE 20 35 11 19 1032.4 1032.4 7.0
25/12:00am 13.6 12.0 12.8 95 0.4 WSW 13 19 7 10 1032.2 1032.2 5.2
 
Date/Time
EST
Temp
°C
App
Temp
°C
Dew
Point
°C
Rel
Hum
%
Delta-T
°C
Wind Press
QNH
hPa
Press
MSL
hPa
Rain since
9am
mm
Dir  Spd
km/h
Gust
km/h
Spd
kts
Gust
kts
24/11:30pm 13.7 11.3 12.6 93 0.6 S 17 26 9 14 1032.2 1032.2 3.8
24/11:00pm 13.4 10.3 12.1 92 0.7 SSE 20 28 11 15 1032.2 1032.2 3.8
24/10:30pm 13.6 8.8 11.7 88 1.0 ESE 28 33 15 18 1032.1 1032.1 3.8
24/10:00pm 14.2 10.7 12.1 87 1.1 ESE 22 30 12 16 1032.2 1032.2 3.8
24/09:30pm 13.9 10.4 12.1 89 1.0 S 22 26 12 14 1031.8 1031.8 3.6
24/09:10pm 14.0 10.1 12.2 89 1.0 S 24 37 13 20 1031.9 1031.9 3.6
24/09:00pm 14.9 11.3 11.7 81 1.7 SSE 22 37 12 20 1031.9 1031.9 2.2
24/08:30pm 14.4 11.2 11.2 81 1.7 SSE 19 30 10 16 1031.9 1031.9 2.2
24/08:00pm 15.5 12.1 10.5 72 2.6 SSE 19 24 10 13 1031.8 1031.8 2.2
24/07:30pm 14.7 11.4 9.7 72 2.6 SSE 17 19 9 10 1031.7 1031.7 2.2
24/07:00pm 15.4 11.5 9.5 68 3.0 SSE 20 28 11 15 1031.4 1031.4 2.2
24/06:30pm 15.1 11.1 9.0 67 3.1 SSE 20 26 11 14 1031.3 1031.3 2.2
24/06:00pm 15.2 10.6 9.8 70 2.8 SSE 24 28 13 15 1031.0 1031.0 2.2
24/05:30pm 14.9 11.4 10.1 73 2.5 SE 19 22 10 12 1030.8 1030.8 2.2
24/05:00pm 15.4 10.3 9.3 67 3.1 SSE 26 33 14 18 1030.4 1030.4 2.2
24/04:30pm 15.3 10.3 9.4 68 3.0 SSE 26 33 14 18 1030.5 1030.5 2.2
24/04:00pm 14.8 10.5 12.1 84 1.5 S 26 37 14 20 1030.3 1030.3 2.2
24/03:30pm 14.2 10.8 12.4 89 1.0 SSW 22 39 12 21 1030.2 1030.2 2.2
24/03:00pm 13.7 9.7 11.9 89 1.0 SSW 24 30 13 16 1030.3 1030.3 2.2
24/02:46pm 14.6 9.6 12.1 85 1.4 SSW 30 48 16 26 1030.1 1030.1 1.8
24/02:30pm 14.7 9.2 12.0 84 1.5 S 32 37 17 20 1030.1 1030.1 1.8
24/02:00pm 15.1 10.3 11.7 80 1.8 S 28 35 15 19 1030.1 1030.1 1.8
24/01:30pm 14.9 8.9 12.2 84 1.5 S 35 44 19 24 1030.1 1030.1 1.8
24/01:00pm 14.2 7.8 12.1 87 1.1 S 37 46 20 25 1030.1 1030.1 1.8
24/12:30pm 16.1 10.0 11.9 76 2.3 SSE 35 46 19 25 1030.5 1030.5 1.6
24/12:00pm 14.9 9.4 12.6 86 1.3 S 33 41 18 22 1030.6 1030.6 1.6
24/11:30am 14.6 8.4 12.5 87 1.1 S 37 48 20 26 1030.8 1030.8 1.4
24/11:00am 14.5 8.9 12.0 85 1.3 S 33 41 18 22 1031.0 1031.0 1.4
24/10:30am 13.9 8.8 11.9 88 1.1 SSW 30 35 16 19 1031.3 1031.3 1.4
24/10:00am 13.2 10.0 11.9 92 0.7 SSW 20 30 11 16 1031.0 1031.0 1.4
24/09:30am 13.1 8.7 11.8 92 0.7 SSW 26 35 14 19 1031.1 1031.1 0.0
24/09:00am 13.0 7.5 11.9 93 0.6 SSW 32 39 17 21 1030.7 1030.7 30.2
24/08:30am 12.7 7.0 11.8 94 0.5 SSW 33 41 18 22 1030.3 1030.3 30.2
24/08:13am 12.0 7.4 11.1 94 0.5 SW 26 32 14 17 1030.2 1030.2 30.2
24/08:00am 12.3 8.2 11.4 94 0.5 SSW 24 30 13 16 1030.3 1030.3 29.8
24/07:30am 12.2 6.9 11.4 95 0.4 SSW 30 37 16 20 1030.1 1030.1 29.0
24/07:00am 11.7 8.2 10.8 94 0.5 SW 20 26 11 14 1029.7 1029.7 28.6
24/06:30am 11.5 7.2 10.6 94 0.5 SSW 24 37 13 20 1029.5 1029.5 28.6
24/06:00am 12.1 7.6 11.3 95 0.4 SSW 26 32 14 17 1029.5 1029.5 28.6
24/05:30am 11.8 6.7 10.7 93 0.6 SW 28 35 15 19 1029.1 1029.1 27.2
24/05:00am 12.2 6.3 11.1 93 0.6 SSW 33 39 18 21 1028.8 1028.8 27.2
24/04:30am 11.7 7.0 10.8 94 0.5 SSW 26 35 14 19 1028.7 1028.7 27.2
24/04:00am 11.8 8.2 10.7 93 0.6 SW 20 26 11 14 1028.7 1028.7 27.2
24/03:30am 11.5 5.9 10.2 92 0.7 SW 30 35 16 19 1028.6 1028.6 26.8
24/03:00am 11.9 6.4 10.6 92 0.7 SSW 30 35 16 19 1028.3 1028.3 26.4
24/02:30am 12.0 6.1 11.2 95 0.4 SSW 33 43 18 23 1028.2 1028.2 26.4
24/02:00am 10.8 5.1 9.9 94 0.5 SW 30 35 16 19 1028.3 1028.3 26.0
24/01:30am 12.4 7.6 11.8 96 0.3 SSW 28 37 15 20 1028.7 1028.7 26.0
24/01:00am 10.9 5.7 10.1 95 0.4 SW 28 39 15 21 1028.0 1028.0 26.0
24/12:30am 11.1 6.7 10.5 96 0.3 WSW 24 28 13 15 1028.0 1028.0 24.4
24/12:15am 10.6 6.1 10.0 96 0.3 W 24 30 13 16 1028.0 1028.0 24.4
24/12:00am 10.4 7.5 9.8 96 0.3 W 15 26 8 14 1028.3 1028.3 22.8
 
Date/Time
EST
Temp
°C
App
Temp
°C
Dew
Point
°C
Rel
Hum
%
Delta-T
°C
Wind Press
QNH
hPa
Press
MSL
hPa
Rain since
9am
mm
Dir  Spd
km/h
Gust
km/h
Spd
kts
Gust
kts
23/11:45pm 10.7 6.9 9.9 95 0.4 SW 20 35 11 19 1028.1 1028.1 20.2
23/11:30pm 10.9 7.7 10.1 95 0.4 SSW 17 30 9 16 1028.2 1028.2 18.6
23/11:00pm 11.1 7.4 10.3 95 0.4 W 20 30 11 16 1028.4 1028.4 8.2
23/10:30pm 11.2 5.1 10.3 94 0.5 SW 33 39 18 21 1028.0 1028.0 4.0
23/10:15pm 11.4 5.5 10.3 93 0.6 SW 32 39 17 21 1028.0 1028.0 3.0
23/10:00pm 11.4 5.8 10.3 93 0.6 SSW 30 39 16 21 1027.9 1027.9 2.8
23/09:47pm 11.4 5.2 10.0 91 0.7 SSW 33 43 18 23 1027.9 1027.9 1.6
23/09:30pm 11.2 4.9 9.6 90 0.8 SW 33 56 18 30 1027.8 1027.8 1.4
23/09:29pm 11.3 5.0 9.7 90 0.8 SW 33 56 18 30 1027.7 1027.7 1.4
23/09:00pm 11.7 5.5 10.1 90 0.8 SSW 33 39 18 21 1027.6 1027.6 1.4
23/08:30pm 11.9 4.9 10.0 88 1.0 SSW 37 43 20 23 1027.5 1027.5 1.2
23/08:00pm 11.8 5.6 10.0 89 0.9 SSW 33 43 18 23 1027.2 1027.2 1.0
23/07:30pm 11.7 5.5 9.4 86 1.2 SSW 32 39 17 21 1027.1 1027.1 0.2
23/07:00pm 11.9 5.6 9.8 87 1.1 SW 33 43 18 23 1026.8 1026.8 0.2
23/06:40pm 11.5 5.3 9.4 87 1.1 SW 32 39 17 21 1026.8 1026.8 0.2
23/06:30pm 11.8 5.6 9.2 84 1.3 SW 32 39 17 21 1026.7 1026.7 0.0

Latest Capital City Observations: Canberra | Sydney | Melbourne | Brisbane | Adelaide | Perth | Hobart | Darwin

Other formats

Comma delimited format used in spreadsheet applications
http://www.bom.gov.au/fwo/IDN60901/IDN60901.94767.axf

JavaScript Object Notation format (JSON) in row-major order
http://www.bom.gov.au/fwo/IDN60901/IDN60901.94767.json

Data quality

Most of these data are generated automatically and are frequently updated. Quality checks on data are not normally performed. It is possible for incorrect values to appear. Refer to information at About Latest Weather Observations and please check the disclaimer before using these data.